createdAt,value
2018-12-13T00:01:18.482Z,15.33
2018-12-13T00:03:49.511Z,16.07
2018-12-13T00:06:20.505Z,16.33
2018-12-13T00:08:49.511Z,17.40
2018-12-13T00:11:18.494Z,17.47
2018-12-13T00:13:47.516Z,16.27
2018-12-13T00:16:16.494Z,16.23
2018-12-13T00:18:45.509Z,15.97
2018-12-13T00:21:14.519Z,16.20
2018-12-13T00:23:43.626Z,17.40
2018-12-13T00:26:12.643Z,18.63
2018-12-13T00:28:41.670Z,17.73
2018-12-13T00:31:10.733Z,18.33
2018-12-13T00:33:39.840Z,17.70
2018-12-13T00:36:08.954Z,18.47
2018-12-13T00:38:37.983Z,18.03
2018-12-13T00:41:06.974Z,18.07
2018-12-13T00:43:35.976Z,18.30
2018-12-13T00:46:05.006Z,16.20
2018-12-13T00:48:34.015Z,17.83
2018-12-13T00:51:03.030Z,16.70
2018-12-13T00:53:32.085Z,18.70
2018-12-13T00:56:01.111Z,17.63
2018-12-13T00:58:30.135Z,18.80
2018-12-13T01:01:01.140Z,17.87
2018-12-13T01:03:32.230Z,18.80
2018-12-13T01:06:01.238Z,18.23
2018-12-13T01:08:30.302Z,19.10
2018-12-13T01:10:59.311Z,18.80
2018-12-13T01:13:28.295Z,19.40
2018-12-13T01:15:57.417Z,18.13
2018-12-13T01:18:26.451Z,18.33
2018-12-13T01:20:55.451Z,18.97
2018-12-13T01:23:24.459Z,18.10
2018-12-13T01:25:54.475Z,19.10
2018-12-13T01:28:24.494Z,19.77
2018-12-13T01:30:53.504Z,18.63
2018-12-13T01:33:22.511Z,19.00
2018-12-13T01:35:51.518Z,18.90
2018-12-13T01:38:20.525Z,18.50
2018-12-13T01:40:50.573Z,17.97
2018-12-13T01:43:19.590Z,18.47
2018-12-13T01:45:48.659Z,17.47
2018-12-13T01:48:17.796Z,18.10
2018-12-13T01:50:46.826Z,20.27
2018-12-13T01:53:15.838Z,18.00
2018-12-13T01:55:44.863Z,17.60
2018-12-13T01:58:15.064Z,17.37
2018-12-13T02:00:44.071Z,15.80
2018-12-13T02:03:13.062Z,15.83
2018-12-13T02:05:42.134Z,17.50
2018-12-13T02:08:11.147Z,17.10
2018-12-13T02:10:40.194Z,17.07
2018-12-13T02:13:09.211Z,16.93
2018-12-13T02:15:38.298Z,16.90
2018-12-13T02:18:07.323Z,15.67
2018-12-13T02:23:04.092Z,17.67
2018-12-13T02:25:33.112Z,18.70
2018-12-13T02:28:02.134Z,16.00
2018-12-13T02:30:31.155Z,16.20
2018-12-13T02:33:00.216Z,16.20
2018-12-13T02:35:29.217Z,16.53
2018-12-13T02:37:58.253Z,16.70
2018-12-13T02:40:27.286Z,17.23
2018-12-13T02:42:56.315Z,15.23
2018-12-13T02:45:25.392Z,16.17
2018-12-13T02:47:54.450Z,16.53
2018-12-13T02:50:23.453Z,18.97
2018-12-13T02:52:53.591Z,18.00
2018-12-13T02:55:23.232Z,17.73
2018-12-13T02:57:52.435Z,17.70
2018-12-13T03:00:21.449Z,18.07
2018-12-13T03:02:50.531Z,16.27
2018-12-13T03:05:19.639Z,17.27
2018-12-13T03:07:48.853Z,18.03
2018-12-13T03:10:17.906Z,17.00
2018-12-13T03:12:48.481Z,18.10
2018-12-13T03:15:18.269Z,18.30
2018-12-13T03:17:47.333Z,17.60
2018-12-13T03:20:17.579Z,19.13
2018-12-13T03:22:46.591Z,20.20
2018-12-13T03:25:15.623Z,18.93
2018-12-13T03:27:44.637Z,18.77
2018-12-13T03:30:13.787Z,19.37
2018-12-13T03:32:42.859Z,19.07
2018-12-13T03:35:11.888Z,20.00
2018-12-13T03:37:42.872Z,18.37
2018-12-13T03:40:11.924Z,18.50
2018-12-13T03:42:40.919Z,19.90
2018-12-13T03:45:09.963Z,19.40
2018-12-13T03:47:39.075Z,18.87
2018-12-13T03:50:08.072Z,18.87
2018-12-13T03:52:37.103Z,19.37
2018-12-13T03:55:06.684Z,20.73
2018-12-13T03:57:35.763Z,20.40
2018-12-13T04:00:05.686Z,20.70
2018-12-13T04:02:34.709Z,20.50
2018-12-13T04:05:04.212Z,20.30
2018-12-13T04:07:34.213Z,20.57
2018-12-13T04:10:03.546Z,21.20
2018-12-13T04:12:32.564Z,19.57
2018-12-13T04:15:01.582Z,21.87
2018-12-13T04:17:30.586Z,21.50
2018-12-13T04:20:01.631Z,20.47
2018-12-13T04:22:30.638Z,19.80
2018-12-13T04:24:59.671Z,21.07
2018-12-13T04:27:28.686Z,20.20
2018-12-13T04:29:57.792Z,20.33
2018-12-13T04:32:26.782Z,22.20
2018-12-13T04:34:55.798Z,20.73
2018-12-13T04:37:24.907Z,21.07
2018-12-13T04:39:53.946Z,20.10
2018-12-13T04:42:22.972Z,20.40
2018-12-13T04:44:52.002Z,22.50
2018-12-13T04:47:21.014Z,22.03
2018-12-13T04:49:50.682Z,21.70
2018-12-13T04:52:19.723Z,20.23
2018-12-13T04:54:48.718Z,20.03
2018-12-13T04:57:17.730Z,20.27
2018-12-13T04:59:46.747Z,21.90
2018-12-13T05:02:15.823Z,19.97
2018-12-13T05:04:44.847Z,22.27
2018-12-13T05:07:13.886Z,20.87
2018-12-13T05:09:42.918Z,22.23
2018-12-13T05:12:11.923Z,20.80
2018-12-13T05:14:41.021Z,21.50
2018-12-13T05:17:10.688Z,21.23
2018-12-13T05:19:39.678Z,23.07
2018-12-13T05:22:08.707Z,23.27
2018-12-13T05:24:37.822Z,22.60
2018-12-13T05:27:08.703Z,21.23
2018-12-13T05:29:37.814Z,22.90
2018-12-13T05:32:06.826Z,24.63
2018-12-13T05:34:35.851Z,23.40
2018-12-13T05:37:04.938Z,22.33
2018-12-13T05:39:33.921Z,24.40
2018-12-13T05:42:03.055Z,22.73
2018-12-13T05:44:32.114Z,23.43
2018-12-13T05:47:01.214Z,23.43
2018-12-13T05:49:30.263Z,21.00
2018-12-13T05:51:59.303Z,22.27
2018-12-13T05:54:28.874Z,22.50
2018-12-13T05:56:58.223Z,21.40
2018-12-13T05:59:27.233Z,21.20
2018-12-13T06:01:56.434Z,22.10
2018-12-13T06:04:25.458Z,20.43
2018-12-13T06:06:54.463Z,21.07
2018-12-13T06:09:23.521Z,21.83
2018-12-13T06:11:53.259Z,21.33
2018-12-13T06:14:22.343Z,23.63
2018-12-13T06:16:51.360Z,22.53
2018-12-13T06:19:26.582Z,22.73
2018-12-13T06:21:51.478Z,21.87
2018-12-13T06:24:20.510Z,21.90
2018-12-13T06:26:49.544Z,22.17
2018-12-13T06:29:18.534Z,24.27
2018-12-13T06:31:47.616Z,21.27
2018-12-13T06:34:16.732Z,21.90
2018-12-13T06:36:45.778Z,23.43
2018-12-13T06:39:14.794Z,22.83
2018-12-13T06:41:43.912Z,22.43
2018-12-13T06:44:12.932Z,21.80
2018-12-13T06:46:41.943Z,21.60
2018-12-13T06:49:11.570Z,22.47
2018-12-13T06:51:40.634Z,23.30
2018-12-13T06:54:10.222Z,22.43
2018-12-13T06:56:39.262Z,20.97
2018-12-13T06:59:08.639Z,22.37
2018-12-13T07:01:37.739Z,23.00
2018-12-13T07:04:07.527Z,21.13
2018-12-13T07:06:36.555Z,22.03
2018-12-13T07:09:07.142Z,21.87
2018-12-13T07:11:37.228Z,20.47
2018-12-13T07:14:06.467Z,20.97
2018-12-13T07:16:35.651Z,21.30
2018-12-13T07:19:04.734Z,19.93
2018-12-13T07:21:34.403Z,20.30
2018-12-13T07:24:03.620Z,18.57
2018-12-13T07:26:32.656Z,17.00
2018-12-13T07:29:01.681Z,16.37
2018-12-13T07:31:31.262Z,15.80
2018-12-13T07:34:00.335Z,14.37
2018-12-13T07:36:29.438Z,15.50
2018-12-13T07:38:58.473Z,12.97
2018-12-13T07:41:27.500Z,14.63
2018-12-13T07:43:56.533Z,14.60
2018-12-13T07:46:25.584Z,14.73
2018-12-13T07:48:56.533Z,12.67
2018-12-13T07:51:26.707Z,14.03
2018-12-13T07:53:55.741Z,15.43
2018-12-13T07:56:24.831Z,12.83
2018-12-13T07:58:53.880Z,11.00
2018-12-13T08:01:22.971Z,11.07
2018-12-13T08:03:52.246Z,10.33
2018-12-13T08:06:21.266Z,10.97
2018-12-13T08:08:50.342Z,10.97
2018-12-13T08:11:19.354Z,10.97
2018-12-13T08:13:48.970Z,10.43
2018-12-13T08:16:18.003Z,9.50
2018-12-13T08:18:49.018Z,9.60
2018-12-13T08:21:20.009Z,9.83
2018-12-13T08:23:49.071Z,9.30
2018-12-13T08:26:18.106Z,9.93
2018-12-13T08:28:47.152Z,9.87
2018-12-13T08:31:16.195Z,10.20
2018-12-13T08:33:45.227Z,8.73
2018-12-13T08:36:14.326Z,9.67
2018-12-13T08:38:43.368Z,10.10
2018-12-13T08:41:12.530Z,10.87
2018-12-13T08:43:41.554Z,10.70
2018-12-13T08:46:10.592Z,10.77
2018-12-13T08:48:39.656Z,9.00
2018-12-13T08:51:09.380Z,9.63
2018-12-13T08:53:38.436Z,8.37
2018-12-13T08:56:07.810Z,9.57
2018-12-13T08:58:36.815Z,9.30
2018-12-13T09:01:06.418Z,9.50
2018-12-13T09:03:36.065Z,7.67
2018-12-13T09:06:05.087Z,8.60
2018-12-13T09:08:34.116Z,8.27
2018-12-13T09:11:03.131Z,8.83
2018-12-13T09:13:32.157Z,8.30
2018-12-13T09:16:01.666Z,8.80
2018-12-13T09:18:30.667Z,8.60
2018-12-13T09:20:59.743Z,8.07
2018-12-13T09:23:28.803Z,8.23
2018-12-13T09:25:58.555Z,8.00
2018-12-13T09:28:27.650Z,8.20
2018-12-13T09:30:56.739Z,8.10
2018-12-13T09:33:25.807Z,9.20
2018-12-13T09:35:54.882Z,7.97
2018-12-13T09:38:23.915Z,8.63
2018-12-13T09:40:52.950Z,7.53
2018-12-13T09:43:21.946Z,7.93
2018-12-13T09:45:50.992Z,7.73
2018-12-13T09:48:19.983Z,8.30
2018-12-13T09:50:51.990Z,8.20
2018-12-13T09:53:21.066Z,8.87
2018-12-13T09:55:50.087Z,7.53
2018-12-13T09:58:19.126Z,7.50
2018-12-13T10:00:48.118Z,7.80
2018-12-13T10:03:17.133Z,7.90
2018-12-13T10:05:46.134Z,7.40
2018-12-13T10:08:15.243Z,7.50
2018-12-13T10:10:44.243Z,7.33
2018-12-13T10:13:13.258Z,7.20
2018-12-13T10:15:42.248Z,8.10
2018-12-13T10:18:11.630Z,7.60
2018-12-13T10:20:40.637Z,7.10
2018-12-13T10:23:09.644Z,7.47
2018-12-13T10:25:38.629Z,8.00
2018-12-13T10:28:07.691Z,7.87
2018-12-13T10:30:36.698Z,8.30
2018-12-13T10:33:05.727Z,7.60
2018-12-13T10:35:34.920Z,7.60
2018-12-13T10:38:03.942Z,7.20
2018-12-13T10:40:32.947Z,7.70
2018-12-13T10:43:02.023Z,7.43
2018-12-13T10:45:31.046Z,8.50
2018-12-13T10:48:00.196Z,7.80
2018-12-13T10:50:29.228Z,7.80
2018-12-13T10:52:58.291Z,9.33
2018-12-13T10:55:27.348Z,8.60
2018-12-13T10:57:56.439Z,8.30
2018-12-13T11:00:30.662Z,8.20
2018-12-13T11:03:48.373Z,7.50
2018-12-13T11:06:17.479Z,7.77
2018-12-13T11:08:47.222Z,7.90
2018-12-13T11:11:16.453Z,6.80
2018-12-13T11:13:45.463Z,7.20
2018-12-13T11:16:14.477Z,7.93
2018-12-13T11:18:43.498Z,8.00
2018-12-13T11:21:17.377Z,7.63
2018-12-13T11:23:44.953Z,7.53
2018-12-13T11:26:14.099Z,7.53
2018-12-13T11:29:57.230Z,7.60
2018-12-13T11:32:26.287Z,8.97
2018-12-13T11:34:55.466Z,7.67
2018-12-13T11:37:24.515Z,8.33
2018-12-13T11:39:53.549Z,8.10
2018-12-13T11:42:23.722Z,8.17
2018-12-13T11:44:52.787Z,7.90
2018-12-13T11:47:22.407Z,9.27
2018-12-13T11:49:51.597Z,8.00
2018-12-13T11:52:20.787Z,7.83
2018-12-13T11:54:49.813Z,8.60
2018-12-13T11:57:18.907Z,8.33
2018-12-13T11:59:47.923Z,7.33
2018-12-13T12:02:16.949Z,7.63
2018-12-13T12:04:46.147Z,7.60
2018-12-13T12:07:15.159Z,8.13
2018-12-13T12:09:44.198Z,7.83
2018-12-13T12:12:13.276Z,7.70
2018-12-13T12:14:42.308Z,7.60
2018-12-13T12:17:11.373Z,8.27
2018-12-13T12:19:40.410Z,7.43
2018-12-13T12:22:10.427Z,8.37
2018-12-13T12:24:39.457Z,7.70
2018-12-13T12:27:08.680Z,7.70
2018-12-13T12:29:37.758Z,8.07
2018-12-13T12:32:06.790Z,7.30
2018-12-13T12:34:35.804Z,7.90
2018-12-13T12:37:04.845Z,7.23
2018-12-13T12:39:33.918Z,9.20
2018-12-13T12:42:03.052Z,8.60
2018-12-13T12:44:34.994Z,8.27
2018-12-13T12:47:04.554Z,7.70
2018-12-13T12:49:33.594Z,8.03
2018-12-13T12:52:02.787Z,7.57
2018-12-13T12:54:31.868Z,8.30
2018-12-13T12:57:00.887Z,8.67
2018-12-13T12:59:30.111Z,8.47
2018-12-13T13:01:59.318Z,8.90
2018-12-13T13:04:28.350Z,8.40
2018-12-13T13:06:57.511Z,8.63
2018-12-13T13:09:26.510Z,9.20
2018-12-13T13:11:55.688Z,8.40
2018-12-13T13:14:24.694Z,8.50
2018-12-13T13:16:53.783Z,9.80
2018-12-13T13:19:22.893Z,9.57
2018-12-13T13:21:51.915Z,8.40
2018-12-13T13:24:21.057Z,9.03
2018-12-13T13:26:50.174Z,9.10
2018-12-13T13:29:19.202Z,9.70
2018-12-13T13:31:48.231Z,8.77
2018-12-13T13:34:17.313Z,9.67
2018-12-13T13:36:46.959Z,8.70
2018-12-13T13:39:15.976Z,9.43
2018-12-13T13:41:44.982Z,9.63
2018-12-13T13:44:14.187Z,9.30
2018-12-13T13:46:43.910Z,9.13
2018-12-13T13:49:12.958Z,8.57
2018-12-13T13:51:42.543Z,8.23
2018-12-13T13:54:11.555Z,9.20
2018-12-13T13:56:40.575Z,9.90
2018-12-13T13:59:09.590Z,10.20
2018-12-13T14:01:38.748Z,8.70
2018-12-13T14:04:07.851Z,10.03
2018-12-13T14:06:38.086Z,9.27
2018-12-13T14:09:08.631Z,9.60
2018-12-13T14:11:37.732Z,10.10
2018-12-13T14:14:06.820Z,9.40
2018-12-13T14:16:35.920Z,9.20
2018-12-13T14:19:05.551Z,9.80
2018-12-13T14:21:34.617Z,10.67
2018-12-13T14:24:03.839Z,10.23
2018-12-13T14:26:32.989Z,10.00
2018-12-13T14:29:02.635Z,9.30
2018-12-13T14:31:31.715Z,11.13
2018-12-13T14:34:00.839Z,10.93
2018-12-13T14:36:30.638Z,10.60
2018-12-13T14:38:59.667Z,10.03
2018-12-13T14:41:30.789Z,9.13
2018-12-13T14:44:05.559Z,9.00
2018-12-13T14:46:34.575Z,11.10
2018-12-13T14:49:03.730Z,10.13
2018-12-13T14:51:32.947Z,11.07
2018-12-13T14:54:02.001Z,9.47
2018-12-13T14:56:31.042Z,10.60
2018-12-13T14:59:00.857Z,9.60
2018-12-13T15:01:29.875Z,9.90
2018-12-13T15:03:59.647Z,10.03
2018-12-13T15:06:28.706Z,10.13
2018-12-13T15:08:57.795Z,10.17
2018-12-13T15:11:26.836Z,11.50
2018-12-13T15:13:55.893Z,8.80
2018-12-13T15:16:25.710Z,10.77
2018-12-13T15:18:54.891Z,11.13
2018-12-13T15:21:24.148Z,10.70
2018-12-13T15:23:53.458Z,11.50
2018-12-13T15:26:23.503Z,11.50
2018-12-13T15:28:53.157Z,11.00
2018-12-13T15:31:22.235Z,11.00
2018-12-13T15:33:51.382Z,9.73
2018-12-13T15:36:21.250Z,10.90
2018-12-13T15:38:50.378Z,11.97
2018-12-13T15:41:19.445Z,10.13
2018-12-13T15:43:48.477Z,11.60
2018-12-13T15:46:17.519Z,10.70
2018-12-13T15:48:46.567Z,12.13
2018-12-13T15:51:16.278Z,13.00
2018-12-13T15:53:46.718Z,11.07
2018-12-13T15:56:16.007Z,11.90
2018-12-13T15:58:45.042Z,11.67
2018-12-13T16:01:14.163Z,11.27
2018-12-13T16:03:43.223Z,11.53
2018-12-13T16:06:12.258Z,12.30
2018-12-13T16:08:41.319Z,12.73
2018-12-13T16:11:10.343Z,11.90
2018-12-13T16:13:39.347Z,11.83
2018-12-13T16:16:09.246Z,11.43
2018-12-13T16:18:38.285Z,11.03
2018-12-13T16:21:07.454Z,11.10
2018-12-13T16:23:36.505Z,12.33
2018-12-13T16:26:05.536Z,12.10
2018-12-13T16:28:34.548Z,12.47
2018-12-13T16:31:03.618Z,12.30
2018-12-13T16:33:33.350Z,12.47
2018-12-13T16:36:02.959Z,12.40
2018-12-13T16:38:32.638Z,11.50
2018-12-13T16:41:01.661Z,11.97
2018-12-13T16:43:31.442Z,12.70
2018-12-13T16:46:00.567Z,12.23
2018-12-13T16:48:29.592Z,11.20
2018-12-13T16:50:58.853Z,11.63
2018-12-13T16:53:27.896Z,12.73
2018-12-13T16:55:58.459Z,11.87
2018-12-13T16:58:27.495Z,12.70
2018-12-13T17:00:56.513Z,12.53
2018-12-13T17:03:37.378Z,13.20
2018-12-13T17:06:06.771Z,13.07
2018-12-13T17:08:35.801Z,13.50
2018-12-13T17:11:05.888Z,13.43
2018-12-13T17:13:35.967Z,13.73
2018-12-13T17:16:05.238Z,12.63
2018-12-13T17:18:34.260Z,13.50
2018-12-13T17:21:03.277Z,13.30
2018-12-13T17:23:32.295Z,12.33
2018-12-13T17:26:01.308Z,12.90
2018-12-13T17:28:30.419Z,13.10
2018-12-13T17:30:59.454Z,12.67
2018-12-13T17:33:29.201Z,12.73
2018-12-13T17:35:58.274Z,13.77
2018-12-13T17:38:27.445Z,12.87
2018-12-13T17:40:57.514Z,13.43
2018-12-13T17:43:29.002Z,14.03
2018-12-13T17:45:58.496Z,13.73
2018-12-13T17:48:28.060Z,12.73
2018-12-13T17:50:57.133Z,13.13
2018-12-13T17:53:26.387Z,15.80
2018-12-13T17:55:55.408Z,12.73
2018-12-13T17:58:24.435Z,13.30
2018-12-13T18:00:53.454Z,14.77
2018-12-13T18:03:22.613Z,13.07
2018-12-13T18:05:51.706Z,12.50
2018-12-13T18:08:20.747Z,14.40
2018-12-13T18:10:50.409Z,13.80
2018-12-13T18:13:19.435Z,13.63
2018-12-13T18:15:49.755Z,13.80
2018-12-13T18:18:18.849Z,15.10
2018-12-13T18:20:47.857Z,14.67
2018-12-13T18:23:16.899Z,14.30
2018-12-13T18:25:45.995Z,13.80
2018-12-13T18:28:16.069Z,15.90
2018-12-13T18:30:45.139Z,14.77
2018-12-13T18:33:14.371Z,13.97
2018-12-13T18:35:44.185Z,14.40
2018-12-13T18:38:13.242Z,14.03
2018-12-13T18:40:42.888Z,14.87
2018-12-13T18:43:12.984Z,13.60
2018-12-13T18:45:42.610Z,14.43
2018-12-13T18:48:13.203Z,13.40
2018-12-13T18:50:42.437Z,13.40
2018-12-13T18:53:12.144Z,12.80
2018-12-13T18:55:42.447Z,16.20
2018-12-13T18:58:11.471Z,14.37
2018-12-13T19:00:40.487Z,14.07
2018-12-13T19:03:09.524Z,16.07
2018-12-13T19:05:38.548Z,13.27
2018-12-13T19:08:07.743Z,13.40
2018-12-13T19:10:41.863Z,14.60
2018-12-13T19:13:07.884Z,13.77
2018-12-13T19:15:36.926Z,14.20
2018-12-13T19:18:05.978Z,15.17
2018-12-13T19:20:35.041Z,15.00
2018-12-13T19:23:04.133Z,13.60
2018-12-13T19:25:33.359Z,14.67
2018-12-13T19:28:02.391Z,14.83
2018-12-13T19:30:31.518Z,12.83
2018-12-13T19:33:00.587Z,13.20
2018-12-13T19:35:29.589Z,14.03
2018-12-13T19:37:58.729Z,12.97
2018-12-13T19:40:27.895Z,14.80
2018-12-13T19:42:56.926Z,12.20
2018-12-13T19:45:26.018Z,13.93
2018-12-13T19:47:55.102Z,15.33
2018-12-13T19:50:24.132Z,13.90
2018-12-13T19:52:53.294Z,15.70
2018-12-13T19:55:22.275Z,13.70
2018-12-13T19:57:51.348Z,13.23
2018-12-13T20:00:20.390Z,15.00
2018-12-13T20:02:49.528Z,13.83
2018-12-13T20:05:19.182Z,13.10
2018-12-13T20:07:48.258Z,14.80
2018-12-13T20:10:17.286Z,13.90
2018-12-13T20:12:46.308Z,14.23
2018-12-13T20:15:15.714Z,13.53
2018-12-13T20:17:44.775Z,14.30
2018-12-13T20:20:13.795Z,13.40
2018-12-13T20:22:42.812Z,14.33
2018-12-13T20:25:11.857Z,12.43
2018-12-13T20:27:40.946Z,13.47
2018-12-13T20:30:10.251Z,10.43
2018-12-13T20:32:39.334Z,13.40
2018-12-13T20:35:08.439Z,12.57
2018-12-13T20:37:37.439Z,12.13
2018-12-13T20:40:06.762Z,12.03
2018-12-13T20:42:35.774Z,12.03
2018-12-13T20:45:05.801Z,13.50
2018-12-13T20:47:34.817Z,11.33
2018-12-13T20:50:04.298Z,11.70
2018-12-13T20:52:33.365Z,10.87
2018-12-13T20:55:02.773Z,12.90
2018-12-13T20:57:32.011Z,12.23
2018-12-13T21:00:01.067Z,11.20
2018-12-13T21:02:30.111Z,12.03
2018-12-13T21:04:59.175Z,12.03
2018-12-13T21:07:35.013Z,12.00
2018-12-13T21:10:07.218Z,11.10
2018-12-13T21:12:36.330Z,11.23
2018-12-13T21:15:06.848Z,13.37
2018-12-13T21:17:37.258Z,11.77
2018-12-13T21:20:06.884Z,11.13
2018-12-13T21:22:36.027Z,11.77
2018-12-13T21:25:05.463Z,12.23
2018-12-13T21:27:34.502Z,11.70
2018-12-13T21:30:03.861Z,12.17
2018-12-13T21:32:32.907Z,12.10
2018-12-13T21:35:02.127Z,12.33
2018-12-13T21:37:31.180Z,11.73
2018-12-13T21:40:00.260Z,11.83
2018-12-13T21:42:29.718Z,12.13
2018-12-13T21:44:58.754Z,12.37
2018-12-13T21:47:27.874Z,12.00
2018-12-13T21:49:56.902Z,12.50
2018-12-13T21:52:25.939Z,11.87
2018-12-13T21:54:55.050Z,13.00
2018-12-13T21:57:24.272Z,13.53
2018-12-13T21:59:54.419Z,11.23
2018-12-13T22:02:23.627Z,13.20
2018-12-13T22:04:52.710Z,12.70
2018-12-13T22:07:21.760Z,14.10
2018-12-13T22:09:50.819Z,12.87
2018-12-13T22:12:19.875Z,13.23
2018-12-13T22:14:48.926Z,13.33
2018-12-13T22:17:18.035Z,12.50
2018-12-13T22:19:47.122Z,13.00
2018-12-13T22:22:16.520Z,13.97
2018-12-13T22:24:45.496Z,13.10
2018-12-13T22:27:14.545Z,14.00
2018-12-13T22:29:43.566Z,15.13
2018-12-13T22:32:13.553Z,14.87
2018-12-13T22:34:43.291Z,14.30
2018-12-13T22:37:12.745Z,15.93
2018-12-13T22:39:41.787Z,15.57
2018-12-13T22:42:10.843Z,16.17
2018-12-13T22:44:39.888Z,16.07
2018-12-13T22:47:08.911Z,15.63
2018-12-13T22:49:37.953Z,16.60
2018-12-13T22:52:06.971Z,16.80
2018-12-13T22:54:36.067Z,16.13
2018-12-13T22:57:05.102Z,16.33
2018-12-13T22:59:34.123Z,15.47
2018-12-13T23:02:03.188Z,16.70
2018-12-13T23:04:32.211Z,16.23
2018-12-13T23:07:01.274Z,16.80
2018-12-13T23:09:30.291Z,15.73
2018-12-13T23:11:59.356Z,17.03
2018-12-13T23:14:30.514Z,16.63
2018-12-13T23:16:59.706Z,17.40
2018-12-13T23:19:28.934Z,18.33
2018-12-13T23:21:58.010Z,18.50
2018-12-13T23:24:27.066Z,20.33
2018-12-13T23:26:56.237Z,24.73
2018-12-13T23:29:27.540Z,21.67
2018-12-13T23:31:57.282Z,24.10
2018-12-13T23:34:26.426Z,26.23
2018-12-13T23:36:55.519Z,26.67
2018-12-13T23:39:24.613Z,26.03
2018-12-13T23:41:53.672Z,25.83
2018-12-13T23:44:23.774Z,26.90
2018-12-13T23:46:52.803Z,25.50
2018-12-13T23:49:21.826Z,23.57
2018-12-13T23:51:50.851Z,24.27
2018-12-13T23:54:19.926Z,23.63
2018-12-13T23:56:48.963Z,22.50
2018-12-13T23:59:18.020Z,22.50
